Learned, Mississippi
Current Conditions -  °F | °C
As of 4:55 PM on Wednesday 26 Nov 2014 (Local Time) from KJVW Reporting Station
Clear Clear  
Wind Chill: 63°   Ceiling: Unl
Heat Index: 63°   Visibility: 10mi
Dew Point: 57°   Wind: 10mph
Humidity: 82%   Direction: 240°WSW
Pressure: 30.08"   Gusts: NA
Location:  32.2288°N, 90.4476°W
Report Text: KJVW 262255Z AUTO 24009KT 10SM CLR 17/14 A3008 RMK AO2
Loading
Personal Weather Stations






























Interactive Weather Map New forecast layout! Learn more

10-Day Weather Forecast

Advertisements
Track Severe Weather on mobile